sensor_id;sensor_type;location;lat;lon;timestamp;temperature;humidity
53978;DHT22;39886;47.984;-1.586;2023-04-01T00:02:11;19.10;66.40
53978;DHT22;39886;47.984;-1.586;2023-04-01T00:04:36;19.00;66.40
53978;DHT22;39886;47.984;-1.586;2023-04-01T00:07:02;19.10;66.40
53978;DHT22;39886;47.984;-1.586;2023-04-01T00:09:28;19.10;66.40
53978;DHT22;39886;47.984;-1.586;2023-04-01T00:11:54;19.10;66.50
53978;DHT22;39886;47.984;-1.586;2023-04-01T00:14:19;19.10;66.50
53978;DHT22;39886;47.984;-1.586;2023-04-01T00:16:45;19.10;66.50
53978;DHT22;39886;47.984;-1.586;2023-04-01T00:19:11;19.10;66.50
53978;DHT22;39886;47.984;-1.586;2023-04-01T00:21:37;19.10;66.50
53978;DHT22;39886;47.984;-1.586;2023-04-01T00:24:03;19.00;66.40
53978;DHT22;39886;47.984;-1.586;2023-04-01T00:26:28;19.00;66.40
53978;DHT22;39886;47.984;-1.586;2023-04-01T00:28:54;19.00;66.40
53978;DHT22;39886;47.984;-1.586;2023-04-01T00:31:20;19.00;66.40
53978;DHT22;39886;47.984;-1.586;2023-04-01T00:33:46;19.00;66.40
53978;DHT22;39886;47.984;-1.586;2023-04-01T00:36:17;19.00;66.50
53978;DHT22;39886;47.984;-1.586;2023-04-01T00:38:44;19.00;66.40
53978;DHT22;39886;47.984;-1.586;2023-04-01T00:41:12;19.00;66.50
53978;DHT22;39886;47.984;-1.586;2023-04-01T00:43:45;19.00;66.50
53978;DHT22;39886;47.984;-1.586;2023-04-01T00:46:11;19.00;66.50
53978;DHT22;39886;47.984;-1.586;2023-04-01T00:48:41;19.00;66.50
53978;DHT22;39886;47.984;-1.586;2023-04-01T00:51:11;18.90;66.40
53978;DHT22;39886;47.984;-1.586;2023-04-01T00:53:43;18.90;66.40
53978;DHT22;39886;47.984;-1.586;2023-04-01T00:56:32;18.90;66.50
53978;DHT22;39886;47.984;-1.586;2023-04-01T00:59:06;18.90;66.40
53978;DHT22;39886;47.984;-1.586;2023-04-01T01:01:34;18.90;66.50
53978;DHT22;39886;47.984;-1.586;2023-04-01T01:04:01;18.90;66.50
53978;DHT22;39886;47.984;-1.586;2023-04-01T01:09:25;18.90;66.50
53978;DHT22;39886;47.984;-1.586;2023-04-01T01:14:38;18.90;66.50
53978;DHT22;39886;47.984;-1.586;2023-04-01T01:25:40;18.90;66.60
53978;DHT22;39886;47.984;-1.586;2023-04-01T01:28:41;18.90;66.60
53978;DHT22;39886;47.984;-1.586;2023-04-01T01:31:33;18.90;66.60
53978;DHT22;39886;47.984;-1.586;2023-04-01T01:34:13;18.80;66.50
53978;DHT22;39886;47.984;-1.586;2023-04-01T01:36:42;18.80;66.60
53978;DHT22;39886;47.984;-1.586;2023-04-01T01:39:12;18.80;66.60
53978;DHT22;39886;47.984;-1.586;2023-04-01T01:41:41;18.80;66.50
53978;DHT22;39886;47.984;-1.586;2023-04-01T01:44:11;18.80;66.60
53978;DHT22;39886;47.984;-1.586;2023-04-01T01:46:38;18.80;66.60
53978;DHT22;39886;47.984;-1.586;2023-04-01T01:49:06;18.80;66.60
53978;DHT22;39886;47.984;-1.586;2023-04-01T01:51:33;18.80;66.60
53978;DHT22;39886;47.984;-1.586;2023-04-01T01:53:59;18.80;66.60
53978;DHT22;39886;47.984;-1.586;2023-04-01T01:56:27;18.80;66.60
53978;DHT22;39886;47.984;-1.586;2023-04-01T01:59:03;18.80;66.60
53978;DHT22;39886;47.984;-1.586;2023-04-01T02:01:31;18.80;66.60
53978;DHT22;39886;47.984;-1.586;2023-04-01T02:03:59;18.80;66.60
53978;DHT22;39886;47.984;-1.586;2023-04-01T02:06:28;18.80;66.70
53978;DHT22;39886;47.984;-1.586;2023-04-01T02:09:06;18.70;66.60
53978;DHT22;39886;47.984;-1.586;2023-04-01T02:11:48;18.70;66.60
53978;DHT22;39886;47.984;-1.586;2023-04-01T02:14:17;18.70;66.60
53978;DHT22;39886;47.984;-1.586;2023-04-01T02:16:56;18.70;66.70
53978;DHT22;39886;47.984;-1.586;2023-04-01T02:19:30;18.70;66.60
53978;DHT22;39886;47.984;-1.586;2023-04-01T02:22:00;18.70;66.60
53978;DHT22;39886;47.984;-1.586;2023-04-01T02:24:28;18.70;66.60
53978;DHT22;39886;47.984;-1.586;2023-04-01T02:26:55;18.70;66.60
53978;DHT22;39886;47.984;-1.586;2023-04-01T02:29:23;18.70;66.60
53978;DHT22;39886;47.984;-1.586;2023-04-01T02:31:50;18.70;66.70
53978;DHT22;39886;47.984;-1.586;2023-04-01T02:34:17;18.70;66.70
53978;DHT22;39886;47.984;-1.586;2023-04-01T02:36:44;18.70;66.70
53978;DHT22;39886;47.984;-1.586;2023-04-01T02:39:10;18.70;66.70
53978;DHT22;39886;47.984;-1.586;2023-04-01T02:41:40;18.70;66.70
53978;DHT22;39886;47.984;-1.586;2023-04-01T02:44:06;18.70;66.70
53978;DHT22;39886;47.984;-1.586;2023-04-01T02:46:32;18.70;66.70
53978;DHT22;39886;47.984;-1.586;2023-04-01T02:48:58;18.70;66.70
53978;DHT22;39886;47.984;-1.586;2023-04-01T02:51:25;18.70;66.70
53978;DHT22;39886;47.984;-1.586;2023-04-01T02:53:51;18.70;66.70
53978;DHT22;39886;47.984;-1.586;2023-04-01T02:56:17;18.70;66.70
53978;DHT22;39886;47.984;-1.586;2023-04-01T02:58:45;18.70;66.70
53978;DHT22;39886;47.984;-1.586;2023-04-01T03:01:11;18.70;66.70
53978;DHT22;39886;47.984;-1.586;2023-04-01T03:03:37;18.70;66.70
53978;DHT22;39886;47.984;-1.586;2023-04-01T03:06:11;18.60;66.60
53978;DHT22;39886;47.984;-1.586;2023-04-01T03:08:37;18.60;66.60
53978;DHT22;39886;47.984;-1.586;2023-04-01T03:11:03;18.60;66.60
53978;DHT22;39886;47.984;-1.586;2023-04-01T03:13:29;18.60;66.60
53978;DHT22;39886;47.984;-1.586;2023-04-01T03:15:55;18.60;66.60
53978;DHT22;39886;47.984;-1.586;2023-04-01T03:18:21;18.60;66.60
53978;DHT22;39886;47.984;-1.586;2023-04-01T03:20:47;18.60;66.60
53978;DHT22;39886;47.984;-1.586;2023-04-01T03:23:13;18.60;66.60
53978;DHT22;39886;47.984;-1.586;2023-04-01T03:25:39;18.60;66.60
53978;DHT22;39886;47.984;-1.586;2023-04-01T03:28:05;18.60;66.60
53978;DHT22;39886;47.984;-1.586;2023-04-01T03:30:31;18.60;66.60
53978;DHT22;39886;47.984;-1.586;2023-04-01T03:32:57;18.60;66.70
53978;DHT22;39886;47.984;-1.586;2023-04-01T03:35:25;18.60;67.30
53978;DHT22;39886;47.984;-1.586;2023-04-01T03:37:51;18.60;66.60
53978;DHT22;39886;47.984;-1.586;2023-04-01T03:40:17;18.60;66.70
53978;DHT22;39886;47.984;-1.586;2023-04-01T03:42:43;18.60;66.60
53978;DHT22;39886;47.984;-1.586;2023-04-01T03:45:09;18.60;66.60
53978;DHT22;39886;47.984;-1.586;2023-04-01T03:47:35;18.60;66.70
53978;DHT22;39886;47.984;-1.586;2023-04-01T03:50:01;18.50;66.60
53978;DHT22;39886;47.984;-1.586;2023-04-01T03:52:30;18.50;66.60
53978;DHT22;39886;47.984;-1.586;2023-04-01T03:54:55;18.50;66.60
53978;DHT22;39886;47.984;-1.586;2023-04-01T03:57:21;18.50;66.60
53978;DHT22;39886;47.984;-1.586;2023-04-01T03:59:47;18.50;66.60
53978;DHT22;39886;47.984;-1.586;2023-04-01T04:02:13;18.50;66.60
53978;DHT22;39886;47.984;-1.586;2023-04-01T04:04:38;18.50;66.60
53978;DHT22;39886;47.984;-1.586;2023-04-01T04:07:05;18.50;66.60
53978;DHT22;39886;47.984;-1.586;2023-04-01T04:09:31;18.50;66.60
53978;DHT22;39886;47.984;-1.586;2023-04-01T04:11:57;18.50;66.60
53978;DHT22;39886;47.984;-1.586;2023-04-01T04:14:23;18.50;66.60
53978;DHT22;39886;47.984;-1.586;2023-04-01T04:16:49;18.50;66.60
53978;DHT22;39886;47.984;-1.586;2023-04-01T04:19:15;18.50;66.70
53978;DHT22;39886;47.984;-1.586;2023-04-01T04:21:41;18.50;66.60
53978;DHT22;39886;47.984;-1.586;2023-04-01T04:24:08;18.50;66.60
53978;DHT22;39886;47.984;-1.586;2023-04-01T04:26:36;18.50;66.60
53978;DHT22;39886;47.984;-1.586;2023-04-01T04:29:02;18.50;66.60
53978;DHT22;39886;47.984;-1.586;2023-04-01T04:31:28;18.50;66.70
53978;DHT22;39886;47.984;-1.586;2023-04-01T04:33:54;18.50;66.60
53978;DHT22;39886;47.984;-1.586;2023-04-01T04:36:20;18.50;66.60
53978;DHT22;39886;47.984;-1.586;2023-04-01T04:38:46;18.50;66.60
53978;DHT22;39886;47.984;-1.586;2023-04-01T04:41:14;18.50;66.60
53978;DHT22;39886;47.984;-1.586;2023-04-01T04:43:41;18.50;66.60
53978;DHT22;39886;47.984;-1.586;2023-04-01T04:46:08;18.50;66.60
53978;DHT22;39886;47.984;-1.586;2023-04-01T04:48:34;18.50;66.60
53978;DHT22;39886;47.984;-1.586;2023-04-01T04:51:00;18.50;66.60
53978;DHT22;39886;47.984;-1.586;2023-04-01T04:53:26;18.50;66.70
53978;DHT22;39886;47.984;-1.586;2023-04-01T04:55:52;18.50;66.70
53978;DHT22;39886;47.984;-1.586;2023-04-01T04:58:18;18.50;66.70
53978;DHT22;39886;47.984;-1.586;2023-04-01T05:00:44;18.50;66.60
53978;DHT22;39886;47.984;-1.586;2023-04-01T05:03:11;18.50;66.60
53978;DHT22;39886;47.984;-1.586;2023-04-01T05:05:38;18.50;66.60
53978;DHT22;39886;47.984;-1.586;2023-04-01T05:08:04;18.50;66.60
53978;DHT22;39886;47.984;-1.586;2023-04-01T05:10:31;18.50;66.60
53978;DHT22;39886;47.984;-1.586;2023-04-01T05:12:57;18.50;66.60
53978;DHT22;39886;47.984;-1.586;2023-04-01T05:15:24;18.40;66.50
53978;DHT22;39886;47.984;-1.586;2023-04-01T05:17:50;18.40;66.60
53978;DHT22;39886;47.984;-1.586;2023-04-01T05:20:16;18.50;66.60
53978;DHT22;39886;47.984;-1.586;2023-04-01T05:22:42;18.40;66.50
53978;DHT22;39886;47.984;-1.586;2023-04-01T05:25:08;18.40;66.50
53978;DHT22;39886;47.984;-1.586;2023-04-01T05:27:34;18.40;66.60
53978;DHT22;39886;47.984;-1.586;2023-04-01T05:30:00;18.40;66.60
53978;DHT22;39886;47.984;-1.586;2023-04-01T05:32:26;18.40;66.60
53978;DHT22;39886;47.984;-1.586;2023-04-01T05:34:53;18.40;66.50
53978;DHT22;39886;47.984;-1.586;2023-04-01T05:37:19;18.40;66.50
53978;DHT22;39886;47.984;-1.586;2023-04-01T05:39:45;18.40;67.20
53978;DHT22;39886;47.984;-1.586;2023-04-01T05:42:11;18.40;66.60
53978;DHT22;39886;47.984;-1.586;2023-04-01T05:44:37;18.40;66.60
53978;DHT22;39886;47.984;-1.586;2023-04-01T05:47:03;18.40;66.50
53978;DHT22;39886;47.984;-1.586;2023-04-01T05:49:30;18.40;66.60
53978;DHT22;39886;47.984;-1.586;2023-04-01T05:51:56;18.40;66.60
53978;DHT22;39886;47.984;-1.586;2023-04-01T05:54:22;18.40;66.50
53978;DHT22;39886;47.984;-1.586;2023-04-01T05:56:48;18.40;66.50
53978;DHT22;39886;47.984;-1.586;2023-04-01T05:59:14;18.40;66.50
53978;DHT22;39886;47.984;-1.586;2023-04-01T06:01:40;18.40;66.50
53978;DHT22;39886;47.984;-1.586;2023-04-01T06:04:06;18.40;66.50
53978;DHT22;39886;47.984;-1.586;2023-04-01T06:06:32;18.30;66.50
53978;DHT22;39886;47.984;-1.586;2023-04-01T06:09:07;18.40;66.50
53978;DHT22;39886;47.984;-1.586;2023-04-01T06:11:48;18.40;66.50
53978;DHT22;39886;47.984;-1.586;2023-04-01T06:17:04;18.40;66.50
53978;DHT22;39886;47.984;-1.586;2023-04-01T06:19:47;18.40;66.50
53978;DHT22;39886;47.984;-1.586;2023-04-01T06:25:22;18.40;66.50
53978;DHT22;39886;47.984;-1.586;2023-04-01T06:31:23;18.40;66.50
53978;DHT22;39886;47.984;-1.586;2023-04-01T06:53:29;18.40;66.40
53978;DHT22;39886;47.984;-1.586;2023-04-01T06:55:59;18.40;66.40
53978;DHT22;39886;47.984;-1.586;2023-04-01T06:58:29;18.40;66.40
53978;DHT22;39886;47.984;-1.586;2023-04-01T07:00:58;18.40;66.40
53978;DHT22;39886;47.984;-1.586;2023-04-01T07:03:39;18.40;66.40
53978;DHT22;39886;47.984;-1.586;2023-04-01T07:06:20;18.50;66.40
53978;DHT22;39886;47.984;-1.586;2023-04-01T07:08:48;18.40;66.40
53978;DHT22;39886;47.984;-1.586;2023-04-01T07:11:25;18.50;66.30
53978;DHT22;39886;47.984;-1.586;2023-04-01T07:19:45;18.50;66.40
53978;DHT22;39886;47.984;-1.586;2023-04-01T07:22:38;18.50;66.40
53978;DHT22;39886;47.984;-1.586;2023-04-01T07:28:06;18.50;66.40
53978;DHT22;39886;47.984;-1.586;2023-04-01T07:30:50;18.50;66.40
53978;DHT22;39886;47.984;-1.586;2023-04-01T07:41:51;18.60;66.40
53978;DHT22;39886;47.984;-1.586;2023-04-01T07:44:34;18.60;66.40
53978;DHT22;39886;47.984;-1.586;2023-04-01T07:47:51;18.60;66.40
53978;DHT22;39886;47.984;-1.586;2023-04-01T07:55:39;18.70;66.20
53978;DHT22;39886;47.984;-1.586;2023-04-01T08:06:19;18.70;66.30
53978;DHT22;39886;47.984;-1.586;2023-04-01T08:09:25;18.80;66.20
53978;DHT22;39886;47.984;-1.586;2023-04-01T08:12:32;18.80;66.10
53978;DHT22;39886;47.984;-1.586;2023-04-01T08:15:26;18.80;66.00
53978;DHT22;39886;47.984;-1.586;2023-04-01T08:25:38;18.80;66.00
53978;DHT22;39886;47.984;-1.586;2023-04-01T08:30:53;18.90;66.10
53978;DHT22;39886;47.984;-1.586;2023-04-01T08:33:26;18.90;65.90
53978;DHT22;39886;47.984;-1.586;2023-04-01T08:36:22;18.90;66.00
53978;DHT22;39886;47.984;-1.586;2023-04-01T08:52:36;18.90;65.80
53978;DHT22;39886;47.984;-1.586;2023-04-01T08:55:40;19.00;65.80
53978;DHT22;39886;47.984;-1.586;2023-04-01T08:58:24;19.00;65.70
53978;DHT22;39886;47.984;-1.586;2023-04-01T09:00:57;19.00;65.80
53978;DHT22;39886;47.984;-1.586;2023-04-01T09:09:13;19.00;65.60
53978;DHT22;39886;47.984;-1.586;2023-04-01T09:25:50;19.10;65.30
53978;DHT22;39886;47.984;-1.586;2023-04-01T09:28:42;19.20;65.50
53978;DHT22;39886;47.984;-1.586;2023-04-01T09:37:41;19.20;65.30
53978;DHT22;39886;47.984;-1.586;2023-04-01T09:40:33;19.20;65.20
53978;DHT22;39886;47.984;-1.586;2023-04-01T09:49:11;19.20;65.10
53978;DHT22;39886;47.984;-1.586;2023-04-01T10:08:14;19.30;64.90
53978;DHT22;39886;47.984;-1.586;2023-04-01T10:11:09;19.30;65.00
53978;DHT22;39886;47.984;-1.586;2023-04-01T10:27:47;19.40;64.60
53978;DHT22;39886;47.984;-1.586;2023-04-01T10:33:45;19.40;64.60
53978;DHT22;39886;47.984;-1.586;2023-04-01T11:01:05;19.50;64.30
53978;DHT22;39886;47.984;-1.586;2023-04-01T11:15:35;19.60;64.10
53978;DHT22;39886;47.984;-1.586;2023-04-01T11:18:13;19.70;64.10
53978;DHT22;39886;47.984;-1.586;2023-04-01T11:21:02;19.70;64.00
53978;DHT22;39886;47.984;-1.586;2023-04-01T11:23:53;19.70;64.00
53978;DHT22;39886;47.984;-1.586;2023-04-01T11:26:32;19.80;63.90
53978;DHT22;39886;47.984;-1.586;2023-04-01T11:42:48;19.80;63.60
53978;DHT22;39886;47.984;-1.586;2023-04-01T11:45:39;19.80;63.50
53978;DHT22;39886;47.984;-1.586;2023-04-01T11:48:27;19.80;63.40
53978;DHT22;39886;47.984;-1.586;2023-04-01T11:57:37;19.80;63.50
53978;DHT22;39886;47.984;-1.586;2023-04-01T12:00:14;19.80;63.60
53978;DHT22;39886;47.984;-1.586;2023-04-01T12:13:20;19.80;63.30
53978;DHT22;39886;47.984;-1.586;2023-04-01T12:18:48;19.90;63.30
53978;DHT22;39886;47.984;-1.586;2023-04-01T12:24:29;19.90;63.20
53978;DHT22;39886;47.984;-1.586;2023-04-01T12:27:10;19.90;63.20
53978;DHT22;39886;47.984;-1.586;2023-04-01T12:36:00;20.00;62.90
53978;DHT22;39886;47.984;-1.586;2023-04-01T12:51:43;20.20;62.40
53978;DHT22;39886;47.984;-1.586;2023-04-01T12:59:44;20.20;62.40
53978;DHT22;39886;47.984;-1.586;2023-04-01T13:05:49;20.10;62.40
53978;DHT22;39886;47.984;-1.586;2023-04-01T13:08:09;20.20;62.40
53978;DHT22;39886;47.984;-1.586;2023-04-01T13:11:17;20.20;62.30
53978;DHT22;39886;47.984;-1.586;2023-04-01T13:16:42;20.10;62.10
53978;DHT22;39886;47.984;-1.586;2023-04-01T13:19:37;20.10;62.00
53978;DHT22;39886;47.984;-1.586;2023-04-01T13:22:15;20.10;62.00
53978;DHT22;39886;47.984;-1.586;2023-04-01T13:25:10;20.10;62.00
53978;DHT22;39886;47.984;-1.586;2023-04-01T13:27:43;20.10;62.10
53978;DHT22;39886;47.984;-1.586;2023-04-01T13:30:33;20.10;62.10
53978;DHT22;39886;47.984;-1.586;2023-04-01T13:38:59;20.10;62.00
53978;DHT22;39886;47.984;-1.586;2023-04-01T13:46:59;20.10;62.00
53978;DHT22;39886;47.984;-1.586;2023-04-01T13:49:45;20.10;62.00
53978;DHT22;39886;47.984;-1.586;2023-04-01T14:06:17;20.30;62.00
53978;DHT22;39886;47.984;-1.586;2023-04-01T14:08:53;20.30;61.90
53978;DHT22;39886;47.984;-1.586;2023-04-01T14:28:03;20.40;61.40
53978;DHT22;39886;47.984;-1.586;2023-04-01T14:31:07;20.50;61.40
53978;DHT22;39886;47.984;-1.586;2023-04-01T14:37:10;20.60;61.10
53978;DHT22;39886;47.984;-1.586;2023-04-01T14:50:47;20.50;61.20
53978;DHT22;39886;47.984;-1.586;2023-04-01T14:53:30;20.50;61.20
53978;DHT22;39886;47.984;-1.586;2023-04-01T14:55:59;20.50;61.30
53978;DHT22;39886;47.984;-1.586;2023-04-01T14:58:50;20.40;61.30
53978;DHT22;39886;47.984;-1.586;2023-04-01T15:01:40;20.40;61.40
53978;DHT22;39886;47.984;-1.586;2023-04-01T15:12:53;20.60;61.00
53978;DHT22;39886;47.984;-1.586;2023-04-01T15:15:45;20.60;60.70
53978;DHT22;39886;47.984;-1.586;2023-04-01T15:23:56;20.70;60.50
53978;DHT22;39886;47.984;-1.586;2023-04-01T15:40:49;20.80;60.50
53978;DHT22;39886;47.984;-1.586;2023-04-01T15:43:28;20.70;60.50
53978;DHT22;39886;47.984;-1.586;2023-04-01T15:49:18;20.70;60.70
53978;DHT22;39886;47.984;-1.586;2023-04-01T15:51:52;20.70;60.70
53978;DHT22;39886;47.984;-1.586;2023-04-01T15:57:04;20.70;60.70
53978;DHT22;39886;47.984;-1.586;2023-04-01T16:02:40;20.70;60.60
53978;DHT22;39886;47.984;-1.586;2023-04-01T16:08:07;20.70;60.70
53978;DHT22;39886;47.984;-1.586;2023-04-01T16:21:08;20.60;60.80
53978;DHT22;39886;47.984;-1.586;2023-04-01T16:23:48;20.60;60.80
53978;DHT22;39886;47.984;-1.586;2023-04-01T16:26:21;20.60;60.90
53978;DHT22;39886;47.984;-1.586;2023-04-01T16:32:21;20.50;60.90
53978;DHT22;39886;47.984;-1.586;2023-04-01T16:35:12;20.50;60.90
53978;DHT22;39886;47.984;-1.586;2023-04-01T16:46:33;20.40;60.80
53978;DHT22;39886;47.984;-1.586;2023-04-01T16:49:17;20.40;60.80
53978;DHT22;39886;47.984;-1.586;2023-04-01T16:57:02;20.40;61.70
53978;DHT22;39886;47.984;-1.586;2023-04-01T17:00:10;20.30;61.00
53978;DHT22;39886;47.984;-1.586;2023-04-01T17:05:49;20.30;61.00
53978;DHT22;39886;47.984;-1.586;2023-04-01T17:08:45;20.30;61.10
53978;DHT22;39886;47.984;-1.586;2023-04-01T17:11:19;20.30;61.10
53978;DHT22;39886;47.984;-1.586;2023-04-01T17:14:03;20.30;61.20
53978;DHT22;39886;47.984;-1.586;2023-04-01T17:17:13;20.30;61.20
53978;DHT22;39886;47.984;-1.586;2023-04-01T17:22:21;20.30;61.10
53978;DHT22;39886;47.984;-1.586;2023-04-01T17:33:02;20.40;60.80
53978;DHT22;39886;47.984;-1.586;2023-04-01T17:35:40;20.40;60.80
53978;DHT22;39886;47.984;-1.586;2023-04-01T17:46:56;20.30;60.90
53978;DHT22;39886;47.984;-1.586;2023-04-01T17:55:41;20.30;60.90
53978;DHT22;39886;47.984;-1.586;2023-04-01T18:01:34;20.20;61.00
53978;DHT22;39886;47.984;-1.586;2023-04-01T18:11:45;20.10;61.20
53978;DHT22;39886;47.984;-1.586;2023-04-01T18:23:14;20.10;61.20
53978;DHT22;39886;47.984;-1.586;2023-04-01T18:25:47;20.00;61.20
53978;DHT22;39886;47.984;-1.586;2023-04-01T18:28:35;20.00;61.30
53978;DHT22;39886;47.984;-1.586;2023-04-01T18:39:15;19.90;61.40
53978;DHT22;39886;47.984;-1.586;2023-04-01T18:42:24;19.90;61.40
53978;DHT22;39886;47.984;-1.586;2023-04-01T18:44:59;19.90;61.30
53978;DHT22;39886;47.984;-1.586;2023-04-01T18:47:38;19.80;61.50
53978;DHT22;39886;47.984;-1.586;2023-04-01T18:51:03;19.80;61.50
53978;DHT22;39886;47.984;-1.586;2023-04-01T18:56:02;19.80;61.50
53978;DHT22;39886;47.984;-1.586;2023-04-01T19:01:25;19.80;61.60
53978;DHT22;39886;47.984;-1.586;2023-04-01T19:04:07;19.80;61.50
53978;DHT22;39886;47.984;-1.586;2023-04-01T19:06:55;19.70;61.60
53978;DHT22;39886;47.984;-1.586;2023-04-01T19:20:17;19.70;61.70
53978;DHT22;39886;47.984;-1.586;2023-04-01T19:23:27;19.60;61.70
53978;DHT22;39886;47.984;-1.586;2023-04-01T19:25:57;19.60;61.70
53978;DHT22;39886;47.984;-1.586;2023-04-01T19:44:56;19.50;62.00
53978;DHT22;39886;47.984;-1.586;2023-04-01T19:50:53;19.40;62.00
53978;DHT22;39886;47.984;-1.586;2023-04-01T19:53:48;19.40;62.10
53978;DHT22;39886;47.984;-1.586;2023-04-01T19:56:24;19.40;62.20
53978;DHT22;39886;47.984;-1.586;2023-04-01T19:59:12;19.40;62.20
53978;DHT22;39886;47.984;-1.586;2023-04-01T20:01:56;19.40;62.30
53978;DHT22;39886;47.984;-1.586;2023-04-01T20:04:51;19.40;62.30
53978;DHT22;39886;47.984;-1.586;2023-04-01T20:07:39;19.40;62.40
53978;DHT22;39886;47.984;-1.586;2023-04-01T20:10:30;19.40;62.40
53978;DHT22;39886;47.984;-1.586;2023-04-01T20:13:19;19.40;62.50
53978;DHT22;39886;47.984;-1.586;2023-04-01T20:16:07;19.30;62.40
53978;DHT22;39886;47.984;-1.586;2023-04-01T20:21:06;19.30;62.60
53978;DHT22;39886;47.984;-1.586;2023-04-01T20:26:14;19.30;62.60
53978;DHT22;39886;47.984;-1.586;2023-04-01T20:31:25;19.30;62.70
53978;DHT22;39886;47.984;-1.586;2023-04-01T20:34:05;19.20;62.60
53978;DHT22;39886;47.984;-1.586;2023-04-01T20:40:00;19.20;62.70
53978;DHT22;39886;47.984;-1.586;2023-04-01T20:43:40;19.20;62.80
53978;DHT22;39886;47.984;-1.586;2023-04-01T20:48:19;19.10;62.80
53978;DHT22;39886;47.984;-1.586;2023-04-01T20:50:52;19.10;62.90
53978;DHT22;39886;47.984;-1.586;2023-04-01T20:59:36;19.10;63.00
53978;DHT22;39886;47.984;-1.586;2023-04-01T21:02:31;19.10;63.00
53978;DHT22;39886;47.984;-1.586;2023-04-01T21:26:19;19.00;63.30
53978;DHT22;39886;47.984;-1.586;2023-04-01T21:35:01;19.00;63.40
53978;DHT22;39886;47.984;-1.586;2023-04-01T21:37:44;18.90;63.40
53978;DHT22;39886;47.984;-1.586;2023-04-01T22:00:19;18.90;63.60
53978;DHT22;39886;47.984;-1.586;2023-04-01T22:06:14;18.90;63.70
53978;DHT22;39886;47.984;-1.586;2023-04-01T22:14:24;18.80;63.70
53978;DHT22;39886;47.984;-1.586;2023-04-01T22:23:41;18.80;63.70
53978;DHT22;39886;47.984;-1.586;2023-04-01T22:26:45;18.80;63.80
53978;DHT22;39886;47.984;-1.586;2023-04-01T22:32:06;18.80;63.90
53978;DHT22;39886;47.984;-1.586;2023-04-01T22:43:08;18.70;63.90
53978;DHT22;39886;47.984;-1.586;2023-04-01T22:45:57;18.70;63.90
53978;DHT22;39886;47.984;-1.586;2023-04-01T22:51:39;18.70;64.00
53978;DHT22;39886;47.984;-1.586;2023-04-01T22:54:35;18.70;64.00
53978;DHT22;39886;47.984;-1.586;2023-04-01T22:57:14;18.70;64.00
53978;DHT22;39886;47.984;-1.586;2023-04-01T22:59:52;18.70;64.00
53978;DHT22;39886;47.984;-1.586;2023-04-01T23:04:56;18.70;64.10
53978;DHT22;39886;47.984;-1.586;2023-04-01T23:07:54;18.70;64.00
53978;DHT22;39886;47.984;-1.586;2023-04-01T23:10:39;18.70;64.00
53978;DHT22;39886;47.984;-1.586;2023-04-01T23:13:12;18.70;64.20
53978;DHT22;39886;47.984;-1.586;2023-04-01T23:15:41;18.60;64.20
53978;DHT22;39886;47.984;-1.586;2023-04-01T23:18:27;18.70;64.20
53978;DHT22;39886;47.984;-1.586;2023-04-01T23:21:21;18.60;64.10
53978;DHT22;39886;47.984;-1.586;2023-04-01T23:27:06;18.60;64.20
53978;DHT22;39886;47.984;-1.586;2023-04-01T23:29:37;18.60;64.10
53978;DHT22;39886;47.984;-1.586;2023-04-01T23:32:23;18.60;64.20
53978;DHT22;39886;47.984;-1.586;2023-04-01T23:34:58;18.60;64.10
53978;DHT22;39886;47.984;-1.586;2023-04-01T23:37:25;18.60;64.10
53978;DHT22;39886;47.984;-1.586;2023-04-01T23:39:53;18.60;64.20
53978;DHT22;39886;47.984;-1.586;2023-04-01T23:42:32;18.60;64.20
53978;DHT22;39886;47.984;-1.586;2023-04-01T23:45:17;18.60;64.20
53978;DHT22;39886;47.984;-1.586;2023-04-01T23:47:47;18.60;64.20
53978;DHT22;39886;47.984;-1.586;2023-04-01T23:50:26;18.50;64.20
53978;DHT22;39886;47.984;-1.586;2023-04-01T23:53:04;18.50;64.20
53978;DHT22;39886;47.984;-1.586;2023-04-01T23:55:34;18.50;64.20
